Ns Captain — A8GW4 — position and weather

sailwx.info

Track history (hours):
 
Tides and Currents Weather Stations Pressure Air Temp Water Temp Dewpoint Dewpoint Depression Visibility Wind Speed Wind Dir Waves Ship Positions

Ns Captain

Last reported at 2017-Oct-13 10:42 UTC. Time now 2017-Oct-16 22:28 UTC.
Position N 44°26' E 037°25'.

Length 243 m; draft 13.2 m.

Type: Ship. MMSI: 636012659.

Date/timePositionNaut miles runAvg speedWind from/ knotsBaromVisibWave heightAir tempDewpointWater temp
2017-Oct-13 10:42N 44°26' E 037°25'513.4
2017-Oct-13 10:19N 44°29' E 037°31'411.8
2017-Oct-13 10:00N 44°30' E 037°36'510.2
2017-Oct-13 09:30N 44°34' E 037°41'3 5.2
2017-Oct-13 09:00N 44°37' E 037°42'0 0.1
2017-Oct-13 08:30N 44°37' E 037°42'0 0.4
2017-Oct-13 07:58N 44°37' E 037°42'0 0.3
2017-Oct-13 07:30N 44°37' E 037°42'0 0.8
2017-Oct-13 06:58N 44°37' E 037°43'0 0.7
2017-Oct-13 06:30N 44°36' E 037°43'0 0.5
2017-Oct-13 06:00N 44°36' E 037°44'0 0.3
2017-Oct-13 05:30N 44°36' E 037°44'0 0.3
2017-Oct-13 05:00N 44°36' E 037°44'1 1.8
2017-Oct-13 04:30N 44°36' E 037°42'1 1.2
2017-Oct-13 04:00N 44°36' E 037°43'1 1.2
2017-Oct-13 03:30N 44°36' E 037°44'1 1.6
2017-Oct-13 03:00N 44°36' E 037°43'2 4.7
2017-Oct-13 02:30N 44°36' E 037°39'2 0.1
2017-Oct-12 10:56N 44°38' E 037°39'2 3.8
2017-Oct-12 10:30N 44°36' E 037°39'1 1.9
2017-Oct-12 10:00N 44°35' E 037°39'0 0.8
2017-Oct-12 09:30N 44°35' E 037°39'3 5.5
2017-Oct-12 09:00N 44°34' E 037°42'4 8.0
2017-Oct-12 08:30N 44°35' E 037°48'4 7.4
2017-Oct-12 08:00N 44°35' E 037°53'0 0.5
2017-Oct-12 07:30N 44°35' E 037°53'0 0.1
2017-Oct-12 07:00N 44°35' E 037°53'0 0.0
2017-Oct-12 06:30N 44°35' E 037°53'0 0.0
2017-Oct-12 06:00N 44°35' E 037°53'0 0.0
2017-Oct-12 05:27N 44°35' E 037°53'0 0.0
2017-Oct-12 04:57N 44°35' E 037°53'0 0.0
2017-Oct-12 04:30N 44°35' E 037°53'0 0.0
2017-Oct-12 03:57N 44°35' E 037°53'0 0.0
2017-Oct-12 03:30N 44°35' E 037°53'0 0.1
2017-Oct-12 03:00N 44°35' E 037°53'0 0.0
2017-Oct-12 02:30N 44°35' E 037°53'0 0.0
2017-Oct-12 01:57N 44°35' E 037°53'0 0.0
2017-Oct-12 01:30N 44°35' E 037°53'0 0.1
2017-Oct-12 01:00N 44°35' E 037°53'0 0.0
2017-Oct-12 00:30N 44°35' E 037°53'0 0.0
2017-Oct-12 00:00N 44°35' E 037°53'0 0.0
2017-Oct-11 23:30N 44°35' E 037°53'0 0.0
2017-Oct-11 23:00N 44°35' E 037°53'0 0.0
2017-Oct-11 22:27N 44°35' E 037°53'0 0.1
2017-Oct-11 22:00N 44°35' E 037°54'0 0.2
2017-Oct-11 21:30N 44°35' E 037°54'0 0.1
2017-Oct-11 21:00N 44°35' E 037°54'0 0.1
2017-Oct-11 20:30N 44°35' E 037°53'0 0.1
2017-Oct-11 19:51N 44°35' E 037°53'0 0.0
2017-Oct-11 19:30N 44°35' E 037°53'0 0.0
2017-Oct-11 19:00N 44°35' E 037°53'0 0.0
2017-Oct-11 18:30N 44°35' E 037°53'0 0.0
2017-Oct-11 18:00N 44°35' E 037°53'0 0.0
2017-Oct-11 17:30N 44°35' E 037°53'0 0.2
2017-Oct-11 17:00N 44°35' E 037°54'9 0.5
2017-Oct-11 00:00N 44°32' E 037°42'0 0.4
2017-Oct-10 23:30N 44°32' E 037°42'0 0.4
2017-Oct-10 23:00N 44°32' E 037°42'0 0.4
2017-Oct-10 22:30N 44°32' E 037°42'0 0.4
2017-Oct-10 21:59N 44°32' E 037°43'0 0.5
2017-Oct-10 21:30N 44°32' E 037°43'0 0.4
2017-Oct-10 21:00N 44°32' E 037°43'0 0.4
2017-Oct-10 20:30N 44°32' E 037°43'0 0.4
2017-Oct-10 20:00N 44°32' E 037°44'0 0.3
2017-Oct-10 19:30N 44°32' E 037°44'0 0.2
2017-Oct-10 19:00N 44°32' E 037°44'1 1.6
2017-Oct-10 18:18N 44°31' E 037°45'2 6.8
2017-Oct-10 18:00N 44°33' E 037°46'4 7.2
2017-Oct-10 17:30N 44°36' E 037°48'1 1.3
2017-Oct-10 17:00N 44°36' E 037°47'1 1.3
2017-Oct-10 16:31N 44°36' E 037°46'0 0.3
2017-Oct-10 16:00N 44°36' E 037°46'1 1.4
2017-Oct-10 15:30N 44°36' E 037°47'0 0.1
2017-Oct-10 15:00N 44°36' E 037°47'1 0.7
2017-Oct-10 14:00N 44°36' E 037°46'1 1.3
2017-Oct-10 13:30N 44°36' E 037°46'0 0.9
2017-Oct-10 13:00N 44°37' E 037°46'0 0.5
2017-Oct-10 12:30N 44°37' E 037°46'0 0.3
2017-Oct-10 12:00N 44°37' E 037°46'1 1.4
2017-Oct-10 11:30N 44°36' E 037°46'0 1.0
2017-Oct-10 11:00N 44°37' E 037°46'1 1.3
2017-Oct-10 10:31N 44°36' E 037°45'2 4.3
2017-Oct-10 10:00N 44°35' E 037°43'612.3
2017-Oct-10 09:30N 44°29' E 037°39'2 2.8
2017-Oct-10 08:57N 44°28' E 037°38'4 8.1
2017-Oct-10 08:30N 44°24' E 037°40'1 1.3
2017-Oct-10 07:57N 44°24' E 037°40'1 1.4
2017-Oct-10 07:30N 44°24' E 037°39'3 6.9
2017-Oct-10 07:00N 44°25' E 037°35'4 8.4
2017-Oct-10 06:30N 44°25' E 037°29'511.0
2017-Oct-10 06:00N 44°25' E 037°21'421 9.5
2017-Oct-08 09:51N 41°01' E 028°60'4 9.7
2017-Oct-08 09:29N 40°58' E 028°60'4 8.5
2017-Oct-08 09:00N 40°54' E 028°60'4 9.1
2017-Oct-08 08:30N 40°49' E 029°01'2 1.3
2017-Oct-08 06:52N 40°47' E 028°59'1 3.2
2017-Oct-08 06:29N 40°47' E 028°58'3 4.4
2017-Oct-08 05:54N 40°45' E 028°56'5 1.0
2017-Oct-08 00:22N 40°50' E 028°56'2 1.8
2017-Oct-07 23:03N 40°52' E 028°56'0 2.1
2017-Oct-07 22:52N 40°52' E 028°56'0 1.2
2017-Oct-07 22:30N 40°52' E 028°56'5 9.2
2017-Oct-07 22:00N 40°48' E 028°52'0 0.7
2017-Oct-07 21:30N 40°48' E 028°52'150 3.3
2017-Oct-06 00:18N 39°40' E 025°56'0 0.9
2017-Oct-05 23:47N 39°40' E 025°57'2 7.6
2017-Oct-05 23:27N 39°40' E 025°54'  
2017-Oct-03 17:15N 36°15' E 014°48'312.3
2017-Oct-03 17:00N 36°15' E 014°45'612.0
2017-Oct-03 16:30N 36°16' E 014°37'612.8
2017-Oct-03 16:00N 36°19' E 014°30'612.1
2017-Oct-03 15:30N 36°21' E 014°23'611.8
2017-Oct-03 15:00N 36°23' E 014°16'1211.9
2017-Oct-03 13:59N 36°27' E 014°02'711.8
2017-Oct-03 13:24N 36°29' E 013°54'511.6
2017-Oct-03 13:00N 36°31' E 013°48'  
Track history (hours):
 
Tides and Currents Weather Stations Pressure Air Temp Water Temp Dewpoint Dewpoint Depression Visibility Wind Speed Wind Dir Waves Ship Positions

Ns Captain

Last reported at 2017-Oct-13 10:42 UTC. Time now 2017-Oct-16 22:28 UTC.
Position N 44°26' E 037°25'.

Length 243 m; draft 13.2 m.

Type: Ship. MMSI: 636012659.

Date/timePositionNaut miles runAvg speedWind from/ knotsBaromVisibWave heightAir tempDewpointWater temp
2017-Oct-13 10:42N 44°26' E 037°25'513.4
2017-Oct-13 10:19N 44°29' E 037°31'411.8
2017-Oct-13 10:00N 44°30' E 037°36'510.2
2017-Oct-13 09:30N 44°34' E 037°41'3 5.2
2017-Oct-13 09:00N 44°37' E 037°42'0 0.1
2017-Oct-13 08:30N 44°37' E 037°42'0 0.4
2017-Oct-13 07:58N 44°37' E 037°42'0 0.3
2017-Oct-13 07:30N 44°37' E 037°42'0 0.8
2017-Oct-13 06:58N 44°37' E 037°43'0 0.7
2017-Oct-13 06:30N 44°36' E 037°43'0 0.5
2017-Oct-13 06:00N 44°36' E 037°44'0 0.3
2017-Oct-13 05:30N 44°36' E 037°44'0 0.3
2017-Oct-13 05:00N 44°36' E 037°44'1 1.8
2017-Oct-13 04:30N 44°36' E 037°42'1 1.2
2017-Oct-13 04:00N 44°36' E 037°43'1 1.2
2017-Oct-13 03:30N 44°36' E 037°44'1 1.6
2017-Oct-13 03:00N 44°36' E 037°43'2 4.7
2017-Oct-13 02:30N 44°36' E 037°39'2 0.1
2017-Oct-12 10:56N 44°38' E 037°39'2 3.8
2017-Oct-12 10:30N 44°36' E 037°39'1 1.9
2017-Oct-12 10:00N 44°35' E 037°39'0 0.8
2017-Oct-12 09:30N 44°35' E 037°39'3 5.5
2017-Oct-12 09:00N 44°34' E 037°42'4 8.0
2017-Oct-12 08:30N 44°35' E 037°48'4 7.4
2017-Oct-12 08:00N 44°35' E 037°53'0 0.5
2017-Oct-12 07:30N 44°35' E 037°53'0 0.1
2017-Oct-12 07:00N 44°35' E 037°53'0 0.0
2017-Oct-12 06:30N 44°35' E 037°53'0 0.0
2017-Oct-12 06:00N 44°35' E 037°53'0 0.0
2017-Oct-12 05:27N 44°35' E 037°53'0 0.0
2017-Oct-12 04:57N 44°35' E 037°53'0 0.0
2017-Oct-12 04:30N 44°35' E 037°53'0 0.0
2017-Oct-12 03:57N 44°35' E 037°53'0 0.0
2017-Oct-12 03:30N 44°35' E 037°53'0 0.1
2017-Oct-12 03:00N 44°35' E 037°53'0 0.0
2017-Oct-12 02:30N 44°35' E 037°53'0 0.0
2017-Oct-12 01:57N 44°35' E 037°53'0 0.0
2017-Oct-12 01:30N 44°35' E 037°53'0 0.1
2017-Oct-12 01:00N 44°35' E 037°53'0 0.0
2017-Oct-12 00:30N 44°35' E 037°53'0 0.0
2017-Oct-12 00:00N 44°35' E 037°53'0 0.0
2017-Oct-11 23:30N 44°35' E 037°53'0 0.0
2017-Oct-11 23:00N 44°35' E 037°53'0 0.0
2017-Oct-11 22:27N 44°35' E 037°53'0 0.1
2017-Oct-11 22:00N 44°35' E 037°54'0 0.2
2017-Oct-11 21:30N 44°35' E 037°54'0 0.1
2017-Oct-11 21:00N 44°35' E 037°54'0 0.1
2017-Oct-11 20:30N 44°35' E 037°53'0 0.1
2017-Oct-11 19:51N 44°35' E 037°53'0 0.0
2017-Oct-11 19:30N 44°35' E 037°53'0 0.0
2017-Oct-11 19:00N 44°35' E 037°53'0 0.0
2017-Oct-11 18:30N 44°35' E 037°53'0 0.0
2017-Oct-11 18:00N 44°35' E 037°53'0 0.0
2017-Oct-11 17:30N 44°35' E 037°53'0 0.2
2017-Oct-11 17:00N 44°35' E 037°54'9 0.5
2017-Oct-11 00:00N 44°32' E 037°42'0 0.4
2017-Oct-10 23:30N 44°32' E 037°42'0 0.4
2017-Oct-10 23:00N 44°32' E 037°42'0 0.4
2017-Oct-10 22:30N 44°32' E 037°42'0 0.4
2017-Oct-10 21:59N 44°32' E 037°43'0 0.5
2017-Oct-10 21:30N 44°32' E 037°43'0 0.4
2017-Oct-10 21:00N 44°32' E 037°43'0 0.4
2017-Oct-10 20:30N 44°32' E 037°43'0 0.4
2017-Oct-10 20:00N 44°32' E 037°44'0 0.3
2017-Oct-10 19:30N 44°32' E 037°44'0 0.2
2017-Oct-10 19:00N 44°32' E 037°44'1 1.6
2017-Oct-10 18:18N 44°31' E 037°45'2 6.8
2017-Oct-10 18:00N 44°33' E 037°46'4 7.2
2017-Oct-10 17:30N 44°36' E 037°48'1 1.3
2017-Oct-10 17:00N 44°36' E 037°47'1 1.3
2017-Oct-10 16:31N 44°36' E 037°46'0 0.3
2017-Oct-10 16:00N 44°36' E 037°46'1 1.4
2017-Oct-10 15:30N 44°36' E 037°47'0 0.1
2017-Oct-10 15:00N 44°36' E 037°47'1 0.7
2017-Oct-10 14:00N 44°36' E 037°46'1 1.3
2017-Oct-10 13:30N 44°36' E 037°46'0 0.9
2017-Oct-10 13:00N 44°37' E 037°46'0 0.5
2017-Oct-10 12:30N 44°37' E 037°46'0 0.3
2017-Oct-10 12:00N 44°37' E 037°46'1 1.4
2017-Oct-10 11:30N 44°36' E 037°46'0 1.0
2017-Oct-10 11:00N 44°37' E 037°46'1 1.3
2017-Oct-10 10:31N 44°36' E 037°45'2 4.3
2017-Oct-10 10:00N 44°35' E 037°43'612.3
2017-Oct-10 09:30N 44°29' E 037°39'2 2.8
2017-Oct-10 08:57N 44°28' E 037°38'4 8.1
2017-Oct-10 08:30N 44°24' E 037°40'1 1.3
2017-Oct-10 07:57N 44°24' E 037°40'1 1.4
2017-Oct-10 07:30N 44°24' E 037°39'3 6.9
2017-Oct-10 07:00N 44°25' E 037°35'4 8.4
2017-Oct-10 06:30N 44°25' E 037°29'511.0
2017-Oct-10 06:00N 44°25' E 037°21'421 9.5
2017-Oct-08 09:51N 41°01' E 028°60'4 9.7
2017-Oct-08 09:29N 40°58' E 028°60'4 8.5
2017-Oct-08 09:00N 40°54' E 028°60'4 9.1
2017-Oct-08 08:30N 40°49' E 029°01'2 1.3
2017-Oct-08 06:52N 40°47' E 028°59'1 3.2
2017-Oct-08 06:29N 40°47' E 028°58'3 4.4
2017-Oct-08 05:54N 40°45' E 028°56'5 1.0
2017-Oct-08 00:22N 40°50' E 028°56'2 1.8
2017-Oct-07 23:03N 40°52' E 028°56'0 2.1
2017-Oct-07 22:52N 40°52' E 028°56'0 1.2
2017-Oct-07 22:30N 40°52' E 028°56'5 9.2
2017-Oct-07 22:00N 40°48' E 028°52'0 0.7
2017-Oct-07 21:30N 40°48' E 028°52'150 3.3
2017-Oct-06 00:18N 39°40' E 025°56'0 0.9
2017-Oct-05 23:47N 39°40' E 025°57'2 7.6
2017-Oct-05 23:27N 39°40' E 025°54'  
2017-Oct-03 17:15N 36°15' E 014°48'312.3
2017-Oct-03 17:00N 36°15' E 014°45'612.0
2017-Oct-03 16:30N 36°16' E 014°37'612.8
2017-Oct-03 16:00N 36°19' E 014°30'612.1
2017-Oct-03 15:30N 36°21' E 014°23'611.8
2017-Oct-03 15:00N 36°23' E 014°16'1211.9
2017-Oct-03 13:59N 36°27' E 014°02'711.8
2017-Oct-03 13:24N 36°29' E 013°54'511.6
2017-Oct-03 13:00N 36°31' E 013°48'  

Dump ship's entire track history